createdAt,value
2022-11-27T00:01:35.986Z,102824.95
2022-11-27T00:04:05.413Z,102828.20
2022-11-27T00:06:34.352Z,102835.58
2022-11-27T00:09:06.211Z,102826.56
2022-11-27T00:11:34.530Z,102829.79
2022-11-27T00:14:02.557Z,102831.63
2022-11-27T00:16:30.612Z,102829.34
2022-11-27T00:18:59.058Z,102823.40
2022-11-27T00:21:29.947Z,102819.63
2022-11-27T00:24:00.331Z,102822.89
2022-11-27T00:26:34.450Z,102823.23
2022-11-27T00:29:07.168Z,102821.63
2022-11-27T00:31:38.200Z,102820.28
2022-11-27T00:34:08.621Z,102813.65
2022-11-27T00:36:38.371Z,102814.08
2022-11-27T00:39:06.881Z,102815.58
2022-11-27T00:41:35.570Z,102819.34
2022-11-27T00:44:04.096Z,102821.54
2022-11-27T00:46:34.345Z,102820.98
2022-11-27T00:49:05.387Z,102818.05
2022-11-27T00:51:33.755Z,102814.55
2022-11-27T00:54:02.122Z,102814.91
2022-11-27T00:56:33.365Z,102815.79
2022-11-27T00:59:01.618Z,102816.98
2022-11-27T01:01:41.410Z,102819.66
2022-11-27T01:04:14.763Z,102816.43
2022-11-27T01:06:43.956Z,102811.37
2022-11-27T01:09:13.388Z,102810.04
2022-11-27T01:11:41.628Z,102814.21
2022-11-27T01:14:15.239Z,102813.48
2022-11-27T01:16:43.595Z,102813.21
2022-11-27T01:19:13.726Z,102810.48
2022-11-27T01:21:42.417Z,102807.10
2022-11-27T01:24:13.249Z,102810.56
2022-11-27T01:26:41.932Z,102805.55
2022-11-27T01:29:10.309Z,102807.81
2022-11-27T01:31:38.406Z,102804.67
2022-11-27T01:34:09.107Z,102806.69
2022-11-27T01:36:37.189Z,102803.73
2022-11-27T01:39:05.577Z,102799.95
2022-11-27T01:41:35.934Z,102806.17
2022-11-27T01:44:23.932Z,102805.77
2022-11-27T01:47:05.691Z,102806.73
2022-11-27T01:49:41.204Z,102808.34
2022-11-27T01:52:17.889Z,102808.02
2022-11-27T01:54:48.530Z,102808.86
2022-11-27T01:57:24.610Z,102809.23
2022-11-27T01:59:54.915Z,102812.70
2022-11-27T02:02:23.002Z,102815.77
2022-11-27T02:04:51.606Z,102817.27
2022-11-27T02:07:19.691Z,102821.85
2022-11-27T02:09:47.948Z,102818.78
2022-11-27T02:12:25.419Z,102819.70
2022-11-27T02:15:14.674Z,102817.68
2022-11-27T02:17:55.062Z,102818.30
2022-11-27T02:20:29.181Z,102822.49
2022-11-27T02:23:06.158Z,102824.20
2022-11-27T02:26:09.520Z,102831.49
2022-11-27T02:29:10.820Z,102827.59
2022-11-27T02:32:00.272Z,102827.66
2022-11-27T02:34:31.212Z,102830.42
2022-11-27T02:37:37.109Z,102831.53
2022-11-27T02:40:13.353Z,102830.82
2022-11-27T02:42:46.482Z,102829.53
2022-11-27T02:48:36.286Z,102825.56
2022-11-27T02:51:06.153Z,102820.63
2022-11-27T02:53:39.986Z,102821.77
2022-11-27T02:56:12.855Z,102822.47
2022-11-27T02:58:42.434Z,102824.17
2022-11-27T03:01:12.561Z,102834.50
2022-11-27T03:03:46.079Z,102839.41
2022-11-27T03:06:20.915Z,102835.08
2022-11-27T03:08:55.765Z,102830.27
2022-11-27T03:11:24.703Z,102828.89
2022-11-27T03:13:56.393Z,102829.86
2022-11-27T03:16:24.429Z,102828.89
2022-11-27T03:18:58.934Z,102819.39
2022-11-27T03:21:30.026Z,102818.00
2022-11-27T03:23:59.165Z,102815.73
2022-11-27T03:26:27.362Z,102812.36
2022-11-27T03:28:58.346Z,102813.83
2022-11-27T03:31:27.134Z,102813.52
2022-11-27T03:33:55.286Z,102811.73
2022-11-27T03:36:23.376Z,102811.86
2022-11-27T03:38:55.423Z,102814.83
2022-11-27T03:41:50.726Z,102819.09
2022-11-27T03:44:36.891Z,102812.11
2022-11-27T03:47:38.770Z,102817.22
2022-11-27T03:50:35.919Z,102813.88
2022-11-27T03:53:09.713Z,102813.50
2022-11-27T03:55:54.818Z,102821.00
2022-11-27T03:58:34.465Z,102827.70
2022-11-27T04:01:06.540Z,102827.96
2022-11-27T04:03:36.170Z,102826.33
2022-11-27T04:06:04.319Z,102828.38
2022-11-27T04:08:32.414Z,102827.95
2022-11-27T04:11:00.392Z,102834.30
2022-11-27T04:13:28.399Z,102827.82
2022-11-27T04:15:59.994Z,102830.15
2022-11-27T04:18:28.056Z,102828.63
2022-11-27T04:20:56.186Z,102825.45
2022-11-27T04:23:24.301Z,102825.88
2022-11-27T04:25:52.454Z,102825.59
2022-11-27T04:28:20.498Z,102827.45
2022-11-27T04:30:54.906Z,102824.99
2022-11-27T04:33:23.121Z,102824.73
2022-11-27T04:35:52.087Z,102826.43
2022-11-27T04:38:21.686Z,102823.16
2022-11-27T04:40:52.019Z,102825.99
2022-11-27T04:43:20.212Z,102820.90
2022-11-27T04:45:48.139Z,102817.27
2022-11-27T04:48:16.106Z,102819.99
2022-11-27T04:50:44.231Z,102817.98
2022-11-27T04:53:12.319Z,102818.58
2022-11-27T04:55:40.370Z,102814.55
2022-11-27T04:58:08.481Z,102812.06
2022-11-27T05:00:36.505Z,102809.81
2022-11-27T05:03:04.639Z,102807.54
2022-11-27T05:05:32.688Z,102802.94
2022-11-27T05:08:00.657Z,102798.05
2022-11-27T05:10:28.660Z,102793.40
2022-11-27T05:12:56.657Z,102792.36
2022-11-27T05:15:24.632Z,102790.83
2022-11-27T05:17:52.616Z,102795.38
2022-11-27T05:20:20.592Z,102801.05
2022-11-27T05:22:49.744Z,102801.30
2022-11-27T05:25:17.780Z,102794.66
2022-11-27T05:27:45.755Z,102794.11
2022-11-27T05:30:13.742Z,102793.09
2022-11-27T05:32:41.683Z,102788.48
2022-11-27T05:35:09.873Z,102790.79
2022-11-27T05:37:37.826Z,102795.19
2022-11-27T05:40:06.672Z,102794.59
2022-11-27T05:42:34.662Z,102801.65
2022-11-27T05:45:02.863Z,102804.05
2022-11-27T05:47:30.830Z,102803.85
2022-11-27T05:49:58.835Z,102801.30
2022-11-27T05:52:27.357Z,102802.04
2022-11-27T05:54:56.611Z,102804.27
2022-11-27T05:57:24.602Z,102803.53
2022-11-27T05:59:52.691Z,102798.36
2022-11-27T06:02:25.016Z,102796.61
2022-11-27T06:04:55.974Z,102796.55
2022-11-27T06:07:24.033Z,102797.02
2022-11-27T06:09:52.211Z,102796.56
2022-11-27T06:12:20.270Z,102798.67
2022-11-27T06:14:48.257Z,102794.45
2022-11-27T06:17:16.711Z,102790.25
2022-11-27T06:19:44.701Z,102793.64
2022-11-27T06:22:12.702Z,102789.51
2022-11-27T06:24:41.077Z,102787.98
2022-11-27T06:27:09.333Z,102787.28
2022-11-27T06:29:37.996Z,102787.48
2022-11-27T06:32:06.761Z,102788.71
2022-11-27T06:34:34.815Z,102789.52
2022-11-27T06:37:02.856Z,102788.31
2022-11-27T06:39:31.040Z,102787.70
2022-11-27T06:41:59.068Z,102788.16
2022-11-27T06:44:27.194Z,102791.48
2022-11-27T06:46:55.179Z,102789.36
2022-11-27T06:49:23.265Z,102787.70
2022-11-27T06:51:51.219Z,102790.10
2022-11-27T06:54:19.204Z,102785.55
2022-11-27T06:56:50.340Z,102784.45
2022-11-27T06:59:19.096Z,102786.30
2022-11-27T07:01:47.190Z,102793.14
2022-11-27T07:04:16.431Z,102795.89
2022-11-27T07:06:44.476Z,102795.05
2022-11-27T07:09:12.489Z,102794.27
2022-11-27T07:11:40.572Z,102794.38
2022-11-27T07:14:08.751Z,102789.81
2022-11-27T07:16:37.358Z,102786.83
2022-11-27T07:19:07.749Z,102788.66
2022-11-27T07:21:37.276Z,102790.66
2022-11-27T07:24:05.616Z,102789.41
2022-11-27T07:26:33.685Z,102791.06
2022-11-27T07:29:01.646Z,102791.70
2022-11-27T07:31:30.960Z,102790.66
2022-11-27T07:33:59.270Z,102793.02
2022-11-27T07:36:30.481Z,102788.80
2022-11-27T07:38:58.678Z,102792.83
2022-11-27T07:41:32.105Z,102793.05
2022-11-27T07:44:02.042Z,102796.75
2022-11-27T07:46:30.597Z,102794.96
2022-11-27T07:49:00.678Z,102794.48
2022-11-27T07:51:29.541Z,102789.11
2022-11-27T07:53:57.612Z,102794.79
2022-11-27T07:56:25.813Z,102793.16
2022-11-27T07:58:53.819Z,102798.20
2022-11-27T08:01:22.410Z,102796.36
2022-11-27T08:03:50.486Z,102798.94
2022-11-27T08:06:24.057Z,102802.85
2022-11-27T08:08:52.988Z,102801.10
2022-11-27T08:11:27.083Z,102801.02
2022-11-27T08:14:00.189Z,102809.34
2022-11-27T08:16:28.894Z,102808.45
2022-11-27T08:18:57.528Z,102809.14
2022-11-27T08:21:26.642Z,102805.16
2022-11-27T08:23:55.042Z,102808.45
2022-11-27T08:26:23.007Z,102809.19
2022-11-27T08:28:53.016Z,102814.84
2022-11-27T08:31:21.584Z,102814.69
2022-11-27T08:33:49.661Z,102820.25
2022-11-27T08:36:18.517Z,102817.80
2022-11-27T08:38:47.129Z,102816.76
2022-11-27T08:41:15.238Z,102815.93
2022-11-27T08:43:43.312Z,102814.03
2022-11-27T08:46:12.017Z,102820.44
2022-11-27T08:48:40.560Z,102820.98
2022-11-27T08:51:11.599Z,102821.13
2022-11-27T08:53:40.234Z,102815.46
2022-11-27T08:56:14.039Z,102812.25
2022-11-27T08:58:42.756Z,102814.27
2022-11-27T09:01:25.935Z,102814.21
2022-11-27T09:03:54.473Z,102818.05
2022-11-27T09:06:25.478Z,102823.40
2022-11-27T09:08:56.678Z,102828.69
2022-11-27T09:11:24.760Z,102836.38
2022-11-27T09:13:53.512Z,102836.91
2022-11-27T09:16:22.869Z,102830.66
2022-11-27T09:18:52.645Z,102836.09
2022-11-27T09:21:22.955Z,102836.06
2022-11-27T09:24:01.951Z,102834.86
2022-11-27T09:26:30.744Z,102837.48
2022-11-27T09:28:59.214Z,102832.27
2022-11-27T09:31:27.765Z,102829.89
2022-11-27T09:33:55.924Z,102824.42
2022-11-27T09:36:25.938Z,102826.58
2022-11-27T09:38:54.730Z,102821.02
2022-11-27T09:41:55.223Z,102813.54
2022-11-27T09:44:46.570Z,102815.93
2022-11-27T09:47:24.058Z,102819.69
2022-11-27T09:50:01.729Z,102816.52
2022-11-27T09:52:32.445Z,102813.84
2022-11-27T09:55:16.207Z,102819.11
2022-11-27T09:57:53.815Z,102819.30
2022-11-27T10:00:22.274Z,102821.77
2022-11-27T10:02:50.428Z,102822.20
2022-11-27T10:05:22.949Z,102822.41
2022-11-27T10:08:09.542Z,102816.61
2022-11-27T10:10:46.864Z,102816.17
2022-11-27T10:13:20.963Z,102817.21
2022-11-27T10:15:56.765Z,102816.86
2022-11-27T10:18:46.770Z,102808.98
2022-11-27T10:21:29.769Z,102807.66
2022-11-27T10:24:03.121Z,102805.92
2022-11-27T10:26:54.318Z,102806.69
2022-11-27T10:29:48.843Z,102803.56
2022-11-27T10:32:53.556Z,102808.29
2022-11-27T10:35:20.233Z,102805.86
2022-11-27T10:38:23.724Z,102806.39
2022-11-27T10:40:59.062Z,102796.05
2022-11-27T10:43:27.073Z,102798.21
2022-11-27T10:46:15.401Z,102797.20
2022-11-27T10:48:43.516Z,102790.98
2022-11-27T10:51:18.610Z,102790.42
2022-11-27T10:53:51.134Z,102786.33
2022-11-27T10:56:50.715Z,102788.41
2022-11-27T10:59:31.349Z,102786.73
2022-11-27T11:02:03.504Z,102789.39
2022-11-27T11:04:39.705Z,102785.57
2022-11-27T11:07:26.012Z,102784.79
2022-11-27T11:09:55.359Z,102782.01
2022-11-27T11:12:24.181Z,102782.04
2022-11-27T11:14:58.890Z,102786.27
2022-11-27T11:17:34.347Z,102782.71
2022-11-27T11:20:22.882Z,102782.95
2022-11-27T11:22:51.559Z,102777.30
2022-11-27T11:25:21.716Z,102775.44
2022-11-27T11:27:51.850Z,102773.16
2022-11-27T11:30:30.281Z,102772.56
2022-11-27T11:33:03.065Z,102772.65
2022-11-27T11:35:34.809Z,102770.59
2022-11-27T11:38:05.725Z,102769.85
2022-11-27T11:40:36.859Z,102768.11
2022-11-27T11:43:21.131Z,102767.80
2022-11-27T11:45:49.256Z,102766.52
2022-11-27T11:48:28.557Z,102769.79
2022-11-27T11:51:19.588Z,102768.73
2022-11-27T11:54:12.517Z,102772.09
2022-11-27T11:56:49.659Z,102772.09
2022-11-27T11:59:45.174Z,102770.77
2022-11-27T12:02:35.025Z,102766.08
2022-11-27T12:05:29.826Z,102761.83
2022-11-27T12:08:31.869Z,102758.00
2022-11-27T12:11:12.284Z,102753.75
2022-11-27T12:14:03.326Z,102755.04
2022-11-27T12:16:43.759Z,102754.36
2022-11-27T12:19:32.231Z,102756.48
2022-11-27T12:22:09.472Z,102750.87
2022-11-27T12:25:03.116Z,102749.06
2022-11-27T12:27:52.764Z,102750.41
2022-11-27T12:30:28.318Z,102752.14
2022-11-27T12:33:14.535Z,102748.04
2022-11-27T12:36:13.649Z,102747.56
2022-11-27T12:39:09.799Z,102744.73
2022-11-27T12:41:46.819Z,102744.98
2022-11-27T12:44:28.653Z,102746.08
2022-11-27T12:47:05.329Z,102744.33
2022-11-27T12:49:57.548Z,102743.27
2022-11-27T12:52:35.140Z,102742.56
2022-11-27T12:55:15.935Z,102744.17
2022-11-27T12:57:49.895Z,102739.87
2022-11-27T13:00:21.122Z,102739.00
2022-11-27T13:03:07.277Z,102739.02
2022-11-27T13:05:44.165Z,102735.28
2022-11-27T13:08:21.962Z,102734.95
2022-11-27T13:10:56.953Z,102737.02
2022-11-27T13:13:37.922Z,102731.98
2022-11-27T13:16:24.627Z,102730.98
2022-11-27T13:19:05.950Z,102728.73
2022-11-27T13:21:35.549Z,102731.53
2022-11-27T13:24:04.646Z,102731.73
2022-11-27T13:26:44.536Z,102732.25
2022-11-27T13:29:34.203Z,102728.73
2022-11-27T13:32:04.206Z,102725.95
2022-11-27T13:34:41.503Z,102725.64
2022-11-27T13:37:21.101Z,102727.02
2022-11-27T13:39:49.103Z,102727.48
2022-11-27T13:42:21.272Z,102723.77
2022-11-27T13:45:18.056Z,102722.68
2022-11-27T13:47:47.112Z,102717.48
2022-11-27T13:50:19.151Z,102720.02
2022-11-27T13:53:00.715Z,102720.88
2022-11-27T13:55:34.803Z,102718.05
2022-11-27T13:58:04.070Z,102716.77
2022-11-27T14:00:34.371Z,102721.77
2022-11-27T14:03:04.188Z,102721.41
2022-11-27T14:05:42.782Z,102724.84
2022-11-27T14:08:35.789Z,102725.30
2022-11-27T14:11:07.013Z,102719.23
2022-11-27T14:13:45.982Z,102717.69
2022-11-27T14:16:19.838Z,102724.89
2022-11-27T14:18:53.256Z,102723.65
2022-11-27T14:21:31.183Z,102725.55
2022-11-27T14:24:00.859Z,102726.52
2022-11-27T14:26:31.471Z,102728.08
2022-11-27T14:29:00.831Z,102725.18
2022-11-27T14:31:35.899Z,102722.45
2022-11-27T14:34:24.558Z,102727.14
2022-11-27T14:36:53.147Z,102728.17
2022-11-27T14:39:27.914Z,102731.30
2022-11-27T14:41:57.609Z,102730.23
2022-11-27T14:44:25.710Z,102734.15
2022-11-27T14:46:55.244Z,102737.49
2022-11-27T14:49:26.033Z,102737.70
2022-11-27T14:51:56.660Z,102737.26
2022-11-27T14:54:32.634Z,102740.24
2022-11-27T14:57:00.758Z,102735.17
2022-11-27T14:59:28.800Z,102734.77
2022-11-27T15:01:59.858Z,102733.33
2022-11-27T15:04:39.876Z,102731.95
2022-11-27T15:07:28.125Z,102736.36
2022-11-27T15:09:58.660Z,102736.53
2022-11-27T15:12:30.132Z,102739.08
2022-11-27T15:15:09.940Z,102736.45
2022-11-27T15:17:40.088Z,102733.61
2022-11-27T15:20:33.796Z,102733.84
2022-11-27T15:23:02.796Z,102731.73
2022-11-27T15:25:44.864Z,102729.82
2022-11-27T15:28:54.773Z,102729.02
2022-11-27T15:31:34.244Z,102728.95
2022-11-27T15:34:14.434Z,102727.87
2022-11-27T15:36:43.596Z,102732.32
2022-11-27T15:39:20.864Z,102728.38
2022-11-27T15:41:52.890Z,102727.80
2022-11-27T15:44:21.568Z,102728.41
2022-11-27T15:46:51.068Z,102727.65
2022-11-27T15:49:19.868Z,102723.89
2022-11-27T15:51:47.884Z,102725.25
2022-11-27T15:54:15.970Z,102725.80
2022-11-27T15:56:44.144Z,102729.64
2022-11-27T15:59:12.204Z,102730.39
2022-11-27T16:01:40.311Z,102733.66
2022-11-27T16:04:08.344Z,102737.39
2022-11-27T16:06:37.573Z,102735.41
2022-11-27T16:09:06.159Z,102736.11
2022-11-27T16:11:34.293Z,102733.46
2022-11-27T16:14:02.297Z,102727.67
2022-11-27T16:16:31.253Z,102721.85
2022-11-27T16:19:01.265Z,102722.23
2022-11-27T16:21:30.228Z,102723.30
2022-11-27T16:23:59.817Z,102722.79
2022-11-27T16:26:28.585Z,102719.39
2022-11-27T16:28:56.638Z,102717.61
2022-11-27T16:31:25.990Z,102717.02
2022-11-27T16:33:54.486Z,102721.11
2022-11-27T16:36:25.141Z,102723.73
2022-11-27T16:38:54.729Z,102721.59
2022-11-27T16:41:25.979Z,102718.35
2022-11-27T16:43:57.030Z,102721.70
2022-11-27T16:46:29.082Z,102719.09
2022-11-27T16:48:59.187Z,102717.07
2022-11-27T16:51:31.783Z,102717.61
2022-11-27T16:54:02.707Z,102719.18
2022-11-27T16:56:33.498Z,102719.28
2022-11-27T16:59:13.101Z,102716.91
2022-11-27T17:01:42.547Z,102716.91
2022-11-27T17:04:19.640Z,102714.77
2022-11-27T17:06:49.635Z,102714.08
2022-11-27T17:09:18.199Z,102714.14
2022-11-27T17:11:50.992Z,102714.13
2022-11-27T17:14:20.701Z,102719.89
2022-11-27T17:16:50.570Z,102721.77
2022-11-27T17:19:18.923Z,102715.02
2022-11-27T17:21:47.715Z,102710.99
2022-11-27T17:24:16.853Z,102709.33
2022-11-27T17:26:47.310Z,102707.61
2022-11-27T17:29:18.036Z,102706.32
2022-11-27T17:31:46.220Z,102703.73
2022-11-27T17:34:16.254Z,102704.66
2022-11-27T17:36:46.030Z,102704.66
2022-11-27T17:39:15.351Z,102701.26
2022-11-27T17:41:45.272Z,102701.99
2022-11-27T17:44:13.682Z,102703.52
2022-11-27T17:46:42.002Z,102700.47
2022-11-27T17:49:11.212Z,102701.60
2022-11-27T17:51:41.378Z,102701.27
2022-11-27T17:54:11.467Z,102699.36
2022-11-27T17:56:40.058Z,102697.47
2022-11-27T17:59:09.811Z,102696.48
2022-11-27T18:01:38.260Z,102694.35
2022-11-27T18:04:06.675Z,102689.58
2022-11-27T18:06:36.130Z,102684.22
2022-11-27T18:09:04.671Z,102680.38
2022-11-27T18:11:34.161Z,102678.77
2022-11-27T18:14:02.844Z,102681.84
2022-11-27T18:16:35.253Z,102689.58
2022-11-27T18:19:06.096Z,102692.94
2022-11-27T18:21:35.363Z,102691.11
2022-11-27T18:27:09.859Z,102691.64
2022-11-27T18:29:41.055Z,102689.14
2022-11-27T18:32:09.906Z,102688.66
2022-11-27T18:34:38.668Z,102682.00
2022-11-27T18:37:07.796Z,102677.89
2022-11-27T18:39:36.954Z,102676.20
2022-11-27T18:42:06.948Z,102671.69
2022-11-27T18:44:39.686Z,102670.90
2022-11-27T18:47:15.236Z,102665.43
2022-11-27T18:49:47.461Z,102665.23
2022-11-27T18:52:15.523Z,102666.66
2022-11-27T18:54:44.453Z,102669.17
2022-11-27T18:57:13.294Z,102670.77
2022-11-27T18:59:43.918Z,102671.33
2022-11-27T19:02:13.557Z,102671.73
2022-11-27T19:04:44.443Z,102673.08
2022-11-27T19:07:12.789Z,102673.54
2022-11-27T19:09:41.196Z,102671.95
2022-11-27T19:12:10.086Z,102678.11
2022-11-27T19:14:38.659Z,102679.63
2022-11-27T19:17:06.844Z,102674.82
2022-11-27T19:22:25.335Z,102675.13
2022-11-27T19:24:56.517Z,102674.73
2022-11-27T19:27:24.625Z,102675.65
2022-11-27T19:29:52.792Z,102673.53
2022-11-27T19:32:21.032Z,102674.73
2022-11-27T19:34:50.743Z,102673.23
2022-11-27T19:37:33.709Z,102675.21
2022-11-27T19:40:05.690Z,102675.56
2022-11-27T19:42:34.072Z,102678.55
2022-11-27T19:45:02.125Z,102676.39
2022-11-27T19:47:30.186Z,102679.52
2022-11-27T19:49:58.213Z,102683.54
2022-11-27T19:52:26.640Z,102681.35
2022-11-27T19:54:54.869Z,102679.13
2022-11-27T19:57:23.057Z,102683.77
2022-11-27T19:59:51.227Z,102683.84
2022-11-27T20:02:19.642Z,102686.47
2022-11-27T20:04:48.464Z,102687.91
2022-11-27T20:07:16.527Z,102683.39
2022-11-27T20:09:44.781Z,102680.39
2022-11-27T20:12:12.822Z,102682.11
2022-11-27T20:14:41.466Z,102683.73
2022-11-27T20:17:09.808Z,102679.67
2022-11-27T20:19:38.034Z,102684.52
2022-11-27T20:22:06.836Z,102685.77
2022-11-27T20:24:38.207Z,102680.27
2022-11-27T20:27:12.688Z,102679.55
2022-11-27T20:29:40.974Z,102674.38
2022-11-27T20:32:09.411Z,102669.60
2022-11-27T20:34:37.668Z,102669.08
2022-11-27T20:37:06.101Z,102671.00
2022-11-27T20:39:35.169Z,102665.96
2022-11-27T20:42:03.530Z,102661.05
2022-11-27T20:44:31.980Z,102658.02
2022-11-27T20:47:00.111Z,102658.77
2022-11-27T20:49:28.313Z,102658.98
2022-11-27T20:52:00.092Z,102662.15
2022-11-27T20:54:29.341Z,102658.79
2022-11-27T20:56:57.359Z,102656.12
2022-11-27T20:59:25.446Z,102656.45
2022-11-27T21:01:53.672Z,102660.29
2022-11-27T21:04:25.388Z,102647.77
2022-11-27T21:06:54.248Z,102656.74
2022-11-27T21:09:22.390Z,102655.52
2022-11-27T21:11:50.438Z,102654.48
2022-11-27T21:14:18.836Z,102655.19
2022-11-27T21:16:49.269Z,102651.25
2022-11-27T21:19:25.820Z,102655.23
2022-11-27T21:21:56.466Z,102651.35
2022-11-27T21:24:28.011Z,102650.27
2022-11-27T21:26:56.997Z,102652.94
2022-11-27T21:29:27.823Z,102660.08
2022-11-27T21:31:57.281Z,102657.59
2022-11-27T21:34:25.758Z,102651.32
2022-11-27T21:36:54.223Z,102649.91
2022-11-27T21:39:23.958Z,102650.54
2022-11-27T21:41:54.383Z,102649.84
2022-11-27T21:44:24.529Z,102648.58
2022-11-27T21:46:52.700Z,102647.36
2022-11-27T21:49:21.568Z,102648.64
2022-11-27T21:51:53.981Z,102650.38
2022-11-27T21:54:25.438Z,102645.94
2022-11-27T21:56:53.555Z,102645.14
2022-11-27T21:59:21.721Z,102649.54
2022-11-27T22:01:50.301Z,102650.61
2022-11-27T22:04:19.101Z,102653.81
2022-11-27T22:06:48.261Z,102649.53
2022-11-27T22:09:16.534Z,102652.98
2022-11-27T22:11:46.514Z,102650.70
2022-11-27T22:14:16.423Z,102652.58
2022-11-27T22:16:46.832Z,102655.05
2022-11-27T22:19:16.647Z,102654.27
2022-11-27T22:21:45.595Z,102652.02
2022-11-27T22:24:18.850Z,102651.53
2022-11-27T22:26:48.778Z,102649.49
2022-11-27T22:29:17.283Z,102652.40
2022-11-27T22:31:45.342Z,102655.86
2022-11-27T22:34:15.360Z,102652.83
2022-11-27T22:36:43.436Z,102652.64
2022-11-27T22:39:12.024Z,102652.19
2022-11-27T22:41:41.209Z,102655.23
2022-11-27T22:44:14.131Z,102657.73
2022-11-27T22:46:42.694Z,102649.92
2022-11-27T22:49:12.711Z,102645.78
2022-11-27T22:51:41.601Z,102644.48
2022-11-27T22:54:12.753Z,102646.29
2022-11-27T22:56:41.490Z,102652.07
2022-11-27T23:02:02.620Z,102653.73
2022-11-27T23:04:31.087Z,102655.01
2022-11-27T23:06:59.678Z,102658.73
2022-11-27T23:09:27.843Z,102659.13
2022-11-27T23:11:57.050Z,102655.15
2022-11-27T23:14:26.488Z,102651.35
2022-11-27T23:16:54.576Z,102653.98
2022-11-27T23:19:22.708Z,102654.86
2022-11-27T23:21:50.829Z,102659.99
2022-11-27T23:24:18.878Z,102658.32
2022-11-27T23:26:47.204Z,102654.48
2022-11-27T23:29:15.268Z,102654.67
2022-11-27T23:31:43.743Z,102655.09
2022-11-27T23:34:15.495Z,102656.55
2022-11-27T23:36:43.586Z,102651.61
2022-11-27T23:39:13.534Z,102648.34
2022-11-27T23:41:41.974Z,102646.95
2022-11-27T23:44:09.950Z,102641.66
2022-11-27T23:46:37.978Z,102641.92
2022-11-27T23:49:06.199Z,102637.66
2022-11-27T23:51:34.211Z,102636.64
2022-11-27T23:54:06.006Z,102634.91
2022-11-27T23:56:34.115Z,102633.83
2022-11-27T23:59:02.180Z,102630.71
